createdAt,value
2016-10-22T00:00:31.622Z,9.06
2016-10-22T00:01:31.571Z,8.99
2016-10-22T00:02:31.568Z,9.02
2016-10-22T00:03:31.536Z,8.99
2016-10-22T00:04:31.832Z,9.12
2016-10-22T00:05:31.502Z,9.09
2016-10-22T00:06:31.483Z,9.09
2016-10-22T00:07:31.506Z,9.1
2016-10-22T00:08:31.458Z,9.09
2016-10-22T00:09:31.762Z,9.12
2016-10-22T00:10:31.424Z,9.13
2016-10-22T00:11:31.455Z,9.04
2016-10-22T00:12:32.020Z,9.1
2016-10-22T00:13:31.703Z,9.01
2016-10-22T00:14:31.677Z,9.09
2016-10-22T00:15:31.351Z,8.99
2016-10-22T00:16:31.364Z,9.04
2016-10-22T00:17:31.320Z,9.06
2016-10-22T00:18:31.303Z,9.02
2016-10-22T00:19:31.286Z,9.09
2016-10-22T00:20:31.276Z,9.05
2016-10-22T00:21:31.303Z,9.12
2016-10-22T00:22:31.553Z,9.01
2016-10-22T00:23:31.304Z,9.06
2016-10-22T00:24:31.536Z,9.15
2016-10-22T00:25:31.198Z,9.06
2016-10-22T00:26:31.184Z,9.09
2016-10-22T00:27:31.167Z,9.1
2016-10-22T00:28:31.151Z,9.15
2016-10-22T00:29:31.146Z,9.12
2016-10-22T00:30:31.429Z,9.13
2016-10-22T00:31:31.105Z,9.13
2016-10-22T00:32:31.094Z,9.15
2016-10-22T00:33:31.076Z,9.09
2016-10-22T00:34:31.386Z,9.12
2016-10-22T00:35:31.042Z,9.18
2016-10-22T00:36:31.345Z,9.15
2016-10-22T00:37:31.013Z,9.16
2016-10-22T00:38:31.013Z,9.12
2016-10-22T00:39:30.992Z,9.16
2016-10-22T00:40:30.968Z,9.18
2016-10-22T00:41:30.959Z,9.13
2016-10-22T00:42:31.253Z,9.2
2016-10-22T00:43:30.937Z,9.16
2016-10-22T00:44:30.924Z,9.2
2016-10-22T00:45:30.907Z,9.16
2016-10-22T00:46:30.880Z,9.2
2016-10-22T00:47:30.874Z,9.2
2016-10-22T00:48:30.861Z,9.16
2016-10-22T00:49:30.835Z,9.16
2016-10-22T00:50:30.824Z,9.13
2016-10-22T00:51:31.115Z,9.15
2016-10-22T00:52:30.789Z,9.15
2016-10-22T00:53:30.824Z,9.16
2016-10-22T00:54:30.756Z,9.12
2016-10-22T00:55:31.053Z,9.13
2016-10-22T00:56:30.728Z,9.13
2016-10-22T00:57:31.023Z,9.2
2016-10-22T00:58:31.013Z,9.23
2016-10-22T00:59:30.685Z,9.16
2016-10-22T01:00:30.989Z,9.15
2016-10-22T01:01:30.692Z,9.16
2016-10-22T01:02:30.645Z,9.15
2016-10-22T01:03:30.631Z,9.13
2016-10-22T01:04:30.929Z,9.18
2016-10-22T01:05:30.605Z,9.2
2016-10-22T01:06:30.579Z,9.23
2016-10-22T01:07:30.559Z,9.18
2016-10-22T01:08:30.549Z,9.16
2016-10-22T01:09:30.539Z,9.13
2016-10-22T01:10:30.520Z,9.15
2016-10-22T01:11:30.546Z,9.2
2016-10-22T01:12:30.497Z,9.18
2016-10-22T01:13:30.823Z,9.18
2016-10-22T01:14:30.792Z,9.2
2016-10-22T01:15:30.759Z,9.16
2016-10-22T01:16:30.748Z,9.18
2016-10-22T01:17:30.505Z,9.18
2016-10-22T01:18:30.395Z,9.15
2016-10-22T01:19:30.382Z,9.21
2016-10-22T01:20:30.413Z,9.18
2016-10-22T01:21:30.691Z,9.16
2016-10-22T01:22:30.344Z,9.24
2016-10-22T01:23:30.331Z,9.23
2016-10-22T01:24:30.660Z,9.2
2016-10-22T01:25:30.295Z,9.16
2016-10-22T01:26:30.282Z,9.16
2016-10-22T01:27:30.257Z,9.24
2016-10-22T01:28:30.552Z,9.2
2016-10-22T01:29:30.540Z,9.24
2016-10-22T01:30:30.226Z,9.24
2016-10-22T01:31:30.196Z,9.18
2016-10-22T01:32:30.188Z,9.15
2016-10-22T01:33:30.489Z,9.3
2016-10-22T01:34:30.157Z,9.21
2016-10-22T01:35:30.462Z,9.21
2016-10-22T01:36:30.132Z,9.2
2016-10-22T01:37:30.158Z,9.28
2016-10-22T01:38:30.101Z,9.16
2016-10-22T01:39:30.081Z,9.23
2016-10-22T01:40:30.100Z,9.23
2016-10-22T01:41:30.047Z,9.2
2016-10-22T01:42:30.036Z,9.21
2016-10-22T01:43:30.342Z,9.2
2016-10-22T01:44:30.044Z,9.16
2016-10-22T01:45:30.511Z,9.2
2016-10-22T01:46:29.976Z,9.18
2016-10-22T01:47:30.286Z,9.18
2016-10-22T01:48:30.269Z,9.15
2016-10-22T01:49:30.274Z,9.24
2016-10-22T01:50:29.921Z,9.18
2016-10-22T01:51:29.898Z,9.23
2016-10-22T01:52:29.891Z,9.23
2016-10-22T01:53:29.899Z,9.12
2016-10-22T01:54:29.854Z,9.18
2016-10-22T01:55:29.888Z,9.16
2016-10-22T01:56:29.823Z,9.15
2016-10-22T01:57:29.805Z,9.2
2016-10-22T01:58:29.791Z,9.25
2016-10-22T01:59:29.775Z,9.15
2016-10-22T02:00:30.126Z,9.2
2016-10-22T02:01:29.750Z,9.18
2016-10-22T02:02:29.731Z,9.18
2016-10-22T02:03:29.716Z,9.21
2016-10-22T02:04:30.056Z,9.25
2016-10-22T02:05:29.694Z,9.16
2016-10-22T02:06:29.670Z,9.2
2016-10-22T02:07:29.661Z,9.21
2016-10-22T02:08:29.643Z,9.13
2016-10-22T02:09:29.622Z,9.16
2016-10-22T02:10:29.614Z,9.1
2016-10-22T02:11:29.948Z,9.12
2016-10-22T02:12:29.589Z,9.09
2016-10-22T02:13:29.565Z,9.13
2016-10-22T02:14:29.552Z,9.09
2016-10-22T02:15:29.573Z,9.1
2016-10-22T02:16:29.560Z,9.1
2016-10-22T02:17:29.510Z,9.05
2016-10-22T02:18:29.488Z,9.09
2016-10-22T02:19:29.518Z,9.09
2016-10-22T02:20:29.463Z,9.04
2016-10-22T02:21:29.817Z,9.06
2016-10-22T02:22:29.425Z,9.05
2016-10-22T02:23:29.414Z,9.02
2016-10-22T02:24:29.410Z,9.01
2016-10-22T02:25:29.714Z,9.09
2016-10-22T02:26:29.679Z,9.05
2016-10-22T02:27:29.356Z,9.06
2016-10-22T02:28:29.347Z,9.02
2016-10-22T02:29:29.320Z,9.01
2016-10-22T02:30:29.972Z,9.09
2016-10-22T02:31:29.288Z,8.93
2016-10-22T02:32:29.279Z,8.94
2016-10-22T02:33:29.279Z,9.06
2016-10-22T02:34:29.257Z,9.04
2016-10-22T02:35:29.553Z,9.02
2016-10-22T02:36:29.246Z,9.02
2016-10-22T02:37:29.203Z,8.93
2016-10-22T02:38:29.234Z,8.94
2016-10-22T02:39:29.176Z,8.96
2016-10-22T02:40:29.214Z,8.97
2016-10-22T02:41:29.140Z,8.96
2016-10-22T02:42:29.163Z,8.93
2016-10-22T02:43:29.426Z,8.91
2016-10-22T02:44:29.097Z,8.88
2016-10-22T02:45:29.079Z,8.94
2016-10-22T02:46:29.108Z,8.93
2016-10-22T02:47:29.044Z,8.91
2016-10-22T02:48:29.037Z,8.87
2016-10-22T02:49:29.337Z,8.96
2016-10-22T02:50:29.002Z,8.86
2016-10-22T02:51:28.989Z,8.83
2016-10-22T02:52:28.979Z,8.83
2016-10-22T02:53:28.956Z,8.78
2016-10-22T02:54:28.944Z,8.86
2016-10-22T02:55:28.929Z,8.91
2016-10-22T02:56:28.915Z,8.88
2016-10-22T02:57:28.952Z,8.87
2016-10-22T02:58:28.887Z,8.88
2016-10-22T02:59:28.867Z,8.81
2016-10-22T03:00:28.902Z,8.81
2016-10-22T03:01:28.836Z,8.79
2016-10-22T03:02:28.867Z,8.84
2016-10-22T03:03:28.819Z,8.83
2016-10-22T03:04:28.795Z,8.84
2016-10-22T03:05:28.874Z,8.79
2016-10-22T03:06:28.758Z,8.86
2016-10-22T03:07:28.748Z,8.83
2016-10-22T03:08:28.741Z,8.88
2016-10-22T03:09:29.079Z,8.86
2016-10-22T03:10:28.745Z,8.87
2016-10-22T03:11:28.678Z,8.94
2016-10-22T03:12:28.719Z,8.86
2016-10-22T03:13:28.681Z,8.86
2016-10-22T03:14:28.969Z,8.81
2016-10-22T03:15:28.641Z,8.87
2016-10-22T03:16:28.931Z,8.91
2016-10-22T03:17:28.594Z,8.83
2016-10-22T03:18:28.637Z,8.79
2016-10-22T03:19:28.566Z,8.84
2016-10-22T03:20:28.563Z,8.79
2016-10-22T03:21:28.530Z,8.91
2016-10-22T03:22:28.523Z,8.84
2016-10-22T03:23:28.516Z,8.84
2016-10-22T03:24:28.804Z,8.86
2016-10-22T03:25:28.484Z,8.83
2016-10-22T03:26:28.458Z,8.88
2016-10-22T03:27:28.443Z,8.78
2016-10-22T03:28:28.422Z,8.81
2016-10-22T03:29:28.407Z,8.94
2016-10-22T03:30:28.393Z,8.86
2016-10-22T03:31:28.373Z,8.83
2016-10-22T03:32:28.370Z,8.86
2016-10-22T03:33:28.668Z,8.86
2016-10-22T03:34:28.335Z,8.87
2016-10-22T03:35:28.322Z,8.88
2016-10-22T03:36:28.621Z,8.94
2016-10-22T03:37:28.690Z,8.87
2016-10-22T03:38:28.276Z,8.87
2016-10-22T03:39:28.578Z,8.83
2016-10-22T03:40:28.242Z,8.86
2016-10-22T03:41:28.235Z,8.86
2016-10-22T03:42:28.213Z,8.83
2016-10-22T03:43:28.199Z,8.84
2016-10-22T03:44:28.495Z,8.87
2016-10-22T03:45:28.408Z,8.87
2016-10-22T03:46:28.149Z,8.83
2016-10-22T03:47:28.228Z,8.88
2016-10-22T03:48:28.117Z,8.84
2016-10-22T03:49:28.111Z,8.9
2016-10-22T03:50:28.089Z,8.86
2016-10-22T03:51:28.086Z,8.81
2016-10-22T03:52:28.428Z,8.81
2016-10-22T03:53:28.366Z,8.88
2016-10-22T03:54:28.038Z,8.78
2016-10-22T03:55:28.014Z,8.93
2016-10-22T03:56:27.997Z,8.86
2016-10-22T03:57:28.296Z,8.79
2016-10-22T03:58:28.059Z,8.81
2016-10-22T03:59:27.953Z,8.71
2016-10-22T04:00:28.256Z,8.72
2016-10-22T04:01:28.236Z,8.76
2016-10-22T04:02:27.906Z,8.71
2016-10-22T04:03:28.207Z,8.79
2016-10-22T04:04:27.871Z,8.71
2016-10-22T04:05:28.178Z,8.78
2016-10-22T04:06:27.843Z,8.72
2016-10-22T04:07:27.829Z,8.78
2016-10-22T04:08:27.817Z,8.71
2016-10-22T04:09:27.796Z,8.68
2016-10-22T04:10:27.832Z,8.65
2016-10-22T04:11:27.767Z,8.73
2016-10-22T04:12:27.754Z,8.69
2016-10-22T04:13:27.783Z,8.66
2016-10-22T04:14:27.725Z,8.71
2016-10-22T04:15:28.017Z,8.62
2016-10-22T04:16:27.696Z,8.65
2016-10-22T04:17:27.725Z,8.71
2016-10-22T04:18:27.654Z,8.55
2016-10-22T04:19:28.273Z,8.58
2016-10-22T04:20:27.629Z,8.6
2016-10-22T04:21:27.931Z,8.58
2016-10-22T04:22:27.599Z,8.62
2016-10-22T04:23:27.964Z,8.57
2016-10-22T04:24:27.788Z,8.62
2016-10-22T04:25:27.914Z,8.63
2016-10-22T04:26:27.536Z,8.58
2016-10-22T04:27:27.835Z,8.62
2016-10-22T04:28:27.513Z,8.58
2016-10-22T04:29:27.804Z,8.62
2016-10-22T04:30:27.477Z,8.57
2016-10-22T04:31:27.461Z,8.68
2016-10-22T04:32:27.460Z,8.65
2016-10-22T04:33:27.428Z,8.62
2016-10-22T04:34:27.413Z,8.63
2016-10-22T04:35:27.400Z,8.58
2016-10-22T04:36:27.793Z,8.58
2016-10-22T04:37:27.679Z,8.58
2016-10-22T04:38:27.678Z,8.6
2016-10-22T04:39:27.343Z,8.63
2016-10-22T04:40:27.638Z,8.55
2016-10-22T04:41:27.307Z,8.58
2016-10-22T04:42:27.294Z,8.55
2016-10-22T04:43:27.279Z,8.65
2016-10-22T04:44:27.572Z,8.58
2016-10-22T04:45:27.247Z,8.62
2016-10-22T04:46:27.268Z,8.65
2016-10-22T04:47:27.289Z,8.55
2016-10-22T04:48:27.574Z,8.57
2016-10-22T04:49:27.175Z,8.53
2016-10-22T04:50:27.477Z,8.62
2016-10-22T04:51:27.159Z,8.6
2016-10-22T04:52:27.144Z,8.58
2016-10-22T04:53:27.134Z,8.53
2016-10-22T04:54:27.104Z,8.53
2016-10-22T04:55:27.101Z,8.55
2016-10-22T04:56:27.391Z,8.53
2016-10-22T04:57:27.061Z,8.55
2016-10-22T04:58:27.048Z,8.55
2016-10-22T04:59:27.341Z,8.51
2016-10-22T05:00:27.017Z,8.53
2016-10-22T05:01:27.315Z,8.55
2016-10-22T05:02:26.991Z,8.51
2016-10-22T05:03:26.974Z,8.58
2016-10-22T05:04:27.590Z,8.53
2016-10-22T05:05:27.249Z,8.54
2016-10-22T05:06:26.918Z,8.53
2016-10-22T05:07:26.908Z,8.54
2016-10-22T05:08:27.205Z,8.51
2016-10-22T05:09:26.887Z,8.51
2016-10-22T05:10:27.233Z,8.4
2016-10-22T05:11:26.849Z,8.48
2016-10-22T05:12:26.837Z,8.48
2016-10-22T05:13:27.161Z,8.47
2016-10-22T05:14:27.112Z,8.48
2016-10-22T05:15:26.783Z,8.48
2016-10-22T05:16:26.771Z,8.39
2016-10-22T05:17:26.752Z,8.45
2016-10-22T05:18:26.731Z,8.37
2016-10-22T05:19:27.066Z,8.36
2016-10-22T05:20:26.708Z,8.39
2016-10-22T05:21:26.707Z,8.36
2016-10-22T05:22:26.671Z,8.35
2016-10-22T05:23:26.975Z,8.44
2016-10-22T05:24:26.641Z,8.35
2016-10-22T05:25:26.624Z,8.32
2016-10-22T05:26:26.610Z,8.44
2016-10-22T05:27:26.591Z,8.37
2016-10-22T05:28:26.577Z,8.35
2016-10-22T05:29:26.885Z,8.45
2016-10-22T05:30:26.551Z,8.45
2016-10-22T05:31:26.542Z,8.44
2016-10-22T05:32:26.516Z,8.44
2016-10-22T05:33:26.818Z,8.33
2016-10-22T05:34:26.488Z,8.44
2016-10-22T05:35:26.795Z,8.39
2016-10-22T05:36:26.458Z,8.33
2016-10-22T05:37:26.441Z,8.47
2016-10-22T05:38:26.425Z,8.32
2016-10-22T05:39:27.039Z,8.35
2016-10-22T05:40:26.396Z,8.37
2016-10-22T05:41:26.383Z,8.35
2016-10-22T05:42:26.361Z,8.3
2016-10-22T05:43:26.353Z,8.3
2016-10-22T05:44:26.330Z,8.32
2016-10-22T05:45:26.316Z,8.32
2016-10-22T05:46:26.301Z,8.33
2016-10-22T05:47:26.283Z,8.3
2016-10-22T05:48:26.274Z,8.33
2016-10-22T05:49:26.259Z,8.32
2016-10-22T05:50:26.243Z,8.33
2016-10-22T05:51:26.218Z,8.35
2016-10-22T05:52:26.209Z,8.35
2016-10-22T05:53:26.506Z,8.35
2016-10-22T05:54:26.178Z,8.36
2016-10-22T05:55:26.162Z,8.35
2016-10-22T05:56:26.144Z,8.35
2016-10-22T05:57:26.485Z,8.4
2016-10-22T05:58:26.113Z,8.36
2016-10-22T05:59:26.093Z,8.35
2016-10-22T06:00:26.084Z,8.3
2016-10-22T06:01:26.071Z,8.39
2016-10-22T06:02:26.060Z,8.28
2016-10-22T06:03:26.035Z,8.39
2016-10-22T06:04:26.413Z,8.4
2016-10-22T06:05:26.013Z,8.47
2016-10-22T06:06:25.996Z,8.47
2016-10-22T06:07:25.977Z,8.42
2016-10-22T06:08:25.956Z,8.44
2016-10-22T06:09:25.995Z,8.44
2016-10-22T06:10:25.937Z,8.42
2016-10-22T06:11:26.236Z,8.42
2016-10-22T06:12:25.903Z,8.36
2016-10-22T06:13:25.880Z,8.36
2016-10-22T06:14:25.857Z,8.35
2016-10-22T06:15:25.849Z,8.35
2016-10-22T06:16:25.844Z,8.32
2016-10-22T06:17:25.811Z,8.35
2016-10-22T06:18:25.801Z,8.44
2016-10-22T06:19:25.835Z,8.45
2016-10-22T06:20:25.769Z,8.44
2016-10-22T06:21:25.756Z,8.42
2016-10-22T06:22:25.793Z,8.36
2016-10-22T06:23:25.729Z,8.42
2016-10-22T06:24:25.707Z,8.4
2016-10-22T06:25:25.741Z,8.35
2016-10-22T06:26:25.676Z,8.33
2016-10-22T06:27:25.657Z,8.37
2016-10-22T06:28:25.967Z,8.39
2016-10-22T06:29:25.634Z,8.33
2016-10-22T06:30:25.609Z,8.44
2016-10-22T06:31:25.594Z,8.37
2016-10-22T06:32:25.580Z,8.36
2016-10-22T06:33:25.567Z,8.35
2016-10-22T06:34:25.551Z,8.44
2016-10-22T06:35:25.851Z,8.42
2016-10-22T06:36:25.526Z,8.35
2016-10-22T06:37:25.509Z,8.3
2016-10-22T06:38:25.491Z,8.33
2016-10-22T06:39:25.476Z,8.37
2016-10-22T06:40:25.470Z,8.35
2016-10-22T06:41:25.447Z,8.39
2016-10-22T06:42:25.423Z,8.44
2016-10-22T06:43:25.419Z,8.35
2016-10-22T06:44:25.395Z,8.32
2016-10-22T06:45:25.696Z,8.33
2016-10-22T06:46:25.363Z,8.32
2016-10-22T06:47:25.349Z,8.33
2016-10-22T06:48:25.339Z,8.32
2016-10-22T06:49:25.316Z,8.36
2016-10-22T06:50:25.313Z,8.35
2016-10-22T06:51:25.282Z,8.32
2016-10-22T06:52:25.267Z,8.36
2016-10-22T06:53:25.254Z,8.36
2016-10-22T06:54:25.237Z,8.35
2016-10-22T06:55:25.223Z,8.32
2016-10-22T06:56:25.203Z,8.35
2016-10-22T06:57:25.195Z,8.32
2016-10-22T06:58:25.175Z,8.29
2016-10-22T06:59:25.595Z,8.36
2016-10-22T07:00:25.171Z,8.36
2016-10-22T07:01:25.144Z,8.33
2016-10-22T07:02:25.464Z,8.29
2016-10-22T07:03:25.097Z,8.29
2016-10-22T07:04:25.099Z,8.39
2016-10-22T07:05:25.395Z,8.35
2016-10-22T07:06:25.070Z,8.35
2016-10-22T07:07:25.036Z,8.36
2016-10-22T07:08:25.016Z,8.29
2016-10-22T07:09:25.004Z,8.32
2016-10-22T07:10:25.300Z,8.33
2016-10-22T07:11:24.971Z,8.32
2016-10-22T07:12:24.954Z,8.39
2016-10-22T07:13:24.938Z,8.32
2016-10-22T07:14:24.924Z,8.33
2016-10-22T07:15:24.905Z,8.3
2016-10-22T07:16:24.889Z,8.32
2016-10-22T07:17:24.875Z,8.32
2016-10-22T07:18:25.196Z,8.3
2016-10-22T07:19:25.160Z,8.32
2016-10-22T07:20:24.826Z,8.35
2016-10-22T07:21:24.810Z,8.35
2016-10-22T07:22:25.114Z,8.32
2016-10-22T07:23:25.110Z,8.35
2016-10-22T07:24:25.081Z,8.3
2016-10-22T07:25:25.109Z,8.35
2016-10-22T07:26:25.063Z,8.33
2016-10-22T07:27:24.730Z,8.39
2016-10-22T07:28:24.712Z,8.4
2016-10-22T07:29:25.001Z,8.48
2016-10-22T07:30:24.687Z,8.35
2016-10-22T07:31:24.672Z,8.36
2016-10-22T07:32:24.650Z,8.37
2016-10-22T07:33:24.629Z,8.45
2016-10-22T07:34:24.613Z,8.39
2016-10-22T07:35:24.598Z,8.44
2016-10-22T07:36:24.895Z,8.48
2016-10-22T07:37:24.569Z,8.44
2016-10-22T07:38:24.550Z,8.48
2016-10-22T07:39:24.529Z,8.44
2016-10-22T07:40:24.516Z,8.45
2016-10-22T07:41:24.497Z,8.42
2016-10-22T07:42:24.484Z,8.48
2016-10-22T07:43:24.468Z,8.45
2016-10-22T07:44:24.463Z,8.4
2016-10-22T07:45:24.450Z,8.51
2016-10-22T07:46:24.626Z,8.51
2016-10-22T07:47:24.407Z,8.58
2016-10-22T07:48:24.394Z,8.53
2016-10-22T07:49:24.373Z,8.57
2016-10-22T07:50:24.357Z,8.54
2016-10-22T07:51:24.344Z,8.6
2016-10-22T07:52:24.642Z,8.54
2016-10-22T07:53:24.319Z,8.57
2016-10-22T07:54:24.300Z,8.68
2016-10-22T07:55:24.600Z,8.65
2016-10-22T07:56:24.580Z,8.65
2016-10-22T07:57:24.255Z,8.65
2016-10-22T07:58:24.548Z,8.55
2016-10-22T07:59:24.219Z,8.65
2016-10-22T08:00:24.221Z,8.57
2016-10-22T08:01:24.193Z,8.73
2016-10-22T08:02:24.495Z,8.6
2016-10-22T08:03:24.483Z,8.68
2016-10-22T08:04:24.148Z,8.72
2016-10-22T08:05:24.135Z,8.71
2016-10-22T08:06:24.427Z,8.69
2016-10-22T08:07:24.467Z,8.68
2016-10-22T08:08:24.088Z,8.65
2016-10-22T08:09:24.076Z,8.75
2016-10-22T08:10:24.263Z,8.75
2016-10-22T08:11:24.049Z,8.76
2016-10-22T08:12:24.023Z,8.72
2016-10-22T08:13:24.025Z,8.73
2016-10-22T08:14:23.997Z,8.81
2016-10-22T08:15:24.411Z,8.72
2016-10-22T08:16:24.312Z,8.76
2016-10-22T08:17:24.286Z,8.73
2016-10-22T08:18:24.490Z,8.91
2016-10-22T08:19:23.936Z,8.81
2016-10-22T08:20:24.243Z,8.84
2016-10-22T08:21:23.903Z,8.87
2016-10-22T08:22:23.880Z,8.81
2016-10-22T08:23:24.191Z,8.79
2016-10-22T08:24:24.396Z,8.88
2016-10-22T08:25:23.838Z,8.83
2016-10-22T08:26:23.854Z,8.86
2016-10-22T08:27:23.805Z,8.84
2016-10-22T08:28:23.800Z,8.84
2016-10-22T08:29:23.772Z,8.79
2016-10-22T08:30:23.762Z,8.9
2016-10-22T08:31:23.748Z,8.91
2016-10-22T08:32:24.046Z,8.96
2016-10-22T08:33:23.763Z,8.93
2016-10-22T08:34:24.027Z,8.83
2016-10-22T08:35:23.683Z,8.83
2016-10-22T08:36:23.683Z,8.86
2016-10-22T08:37:23.650Z,8.96
2016-10-22T08:38:23.633Z,8.9
2016-10-22T08:39:23.629Z,8.91
2016-10-22T08:40:23.607Z,8.86
2016-10-22T08:41:23.593Z,8.83
2016-10-22T08:42:23.590Z,8.94
2016-10-22T08:43:23.567Z,8.94
2016-10-22T08:44:23.869Z,8.87
2016-10-22T08:45:23.533Z,8.97
2016-10-22T08:46:23.514Z,8.94
2016-10-22T08:47:23.845Z,8.94
2016-10-22T08:48:23.820Z,8.88
2016-10-22T08:49:23.482Z,8.84
2016-10-22T08:50:23.781Z,8.86
2016-10-22T08:51:23.768Z,8.84
2016-10-22T08:52:23.448Z,8.94
2016-10-22T08:53:24.086Z,8.96
2016-10-22T08:54:23.415Z,8.97
2016-10-22T08:55:23.409Z,8.91
2016-10-22T08:56:23.691Z,8.97
2016-10-22T08:57:23.370Z,9.09
2016-10-22T08:58:23.667Z,9.15
2016-10-22T08:59:23.642Z,9.18
2016-10-22T09:00:23.334Z,9.16
2016-10-22T09:01:23.645Z,9.21
2016-10-22T09:02:23.290Z,9.28
2016-10-22T09:03:23.280Z,9.3
2016-10-22T09:04:23.572Z,9.32
2016-10-22T09:05:23.244Z,9.35
2016-10-22T09:06:23.456Z,9.32
2016-10-22T09:07:23.225Z,9.43
2016-10-22T09:08:23.201Z,9.35
2016-10-22T09:09:23.195Z,9.39
2016-10-22T09:10:23.170Z,9.45
2016-10-22T09:11:23.786Z,9.49
2016-10-22T09:12:23.134Z,9.49
2016-10-22T09:13:23.763Z,9.58
2016-10-22T09:14:23.107Z,9.49
2016-10-22T09:15:23.104Z,9.52
2016-10-22T09:16:23.096Z,9.42
2016-10-22T09:17:23.065Z,9.45
2016-10-22T09:18:23.055Z,9.4
2016-10-22T09:19:23.038Z,9.39
2016-10-22T09:20:23.023Z,9.4
2016-10-22T09:21:23.006Z,9.39
2016-10-22T09:22:22.992Z,9.48
2016-10-22T09:23:22.985Z,9.45
2016-10-22T09:24:22.979Z,9.42
2016-10-22T09:25:22.973Z,9.48
2016-10-22T09:26:22.980Z,9.48
2016-10-22T09:27:22.932Z,9.58
2016-10-22T09:28:22.918Z,9.64
2016-10-22T09:29:22.896Z,9.52
2016-10-22T09:30:22.893Z,9.61
2016-10-22T09:31:23.176Z,9.63
2016-10-22T09:32:22.861Z,9.68
2016-10-22T09:33:23.148Z,9.75
2016-10-22T09:34:23.141Z,9.7
2016-10-22T09:35:22.824Z,9.71
2016-10-22T09:36:23.429Z,9.7
2016-10-22T09:37:22.788Z,9.71
2016-10-22T09:38:22.790Z,9.57
2016-10-22T09:39:22.764Z,9.63
2016-10-22T09:40:22.754Z,9.64
2016-10-22T09:41:22.731Z,9.61
2016-10-22T09:42:22.718Z,9.6
2016-10-22T09:43:23.021Z,9.64
2016-10-22T09:44:23.003Z,9.56
2016-10-22T09:45:23.006Z,9.57
2016-10-22T09:46:22.908Z,9.61
2016-10-22T09:47:22.963Z,9.58
2016-10-22T09:48:22.645Z,9.56
2016-10-22T09:49:22.626Z,9.6
2016-10-22T09:50:22.620Z,9.6
2016-10-22T09:51:22.589Z,9.6
2016-10-22T09:52:22.576Z,9.58
2016-10-22T09:53:22.572Z,9.6
2016-10-22T09:54:22.612Z,9.57
2016-10-22T09:55:22.894Z,9.52
2016-10-22T09:56:22.525Z,9.57
2016-10-22T09:57:22.509Z,9.57
2016-10-22T09:58:22.504Z,9.53
2016-10-22T09:59:22.493Z,9.58
2016-10-22T10:00:22.475Z,9.43
2016-10-22T10:01:22.463Z,9.43
2016-10-22T10:02:22.443Z,9.46
2016-10-22T10:03:22.744Z,9.49
2016-10-22T10:04:22.421Z,9.49
2016-10-22T10:05:22.757Z,9.42
2016-10-22T10:06:22.396Z,9.45
2016-10-22T10:07:22.377Z,9.48
2016-10-22T10:08:22.353Z,9.5
2016-10-22T10:09:22.666Z,9.5
2016-10-22T10:10:22.331Z,9.48
2016-10-22T10:11:22.361Z,9.46
2016-10-22T10:12:22.316Z,9.38
2016-10-22T10:13:22.285Z,9.46
2016-10-22T10:14:22.272Z,9.48
2016-10-22T10:15:22.262Z,9.4
2016-10-22T10:16:22.287Z,9.48
2016-10-22T10:17:22.240Z,9.56
2016-10-22T10:18:22.221Z,9.57
2016-10-22T10:19:22.211Z,9.52
2016-10-22T10:20:22.194Z,9.7
2016-10-22T10:21:22.175Z,9.63
2016-10-22T10:22:22.160Z,9.66
2016-10-22T10:23:22.156Z,9.73
2016-10-22T10:24:22.447Z,9.68
2016-10-22T10:25:22.123Z,9.73
2016-10-22T10:26:22.419Z,9.76
2016-10-22T10:27:22.095Z,9.75
2016-10-22T10:28:22.083Z,9.78
2016-10-22T10:29:22.068Z,9.85
2016-10-22T10:30:22.375Z,9.71
2016-10-22T10:31:22.041Z,9.7
2016-10-22T10:32:22.346Z,9.73
2016-10-22T10:33:22.335Z,9.81
2016-10-22T10:34:22.313Z,9.81
2016-10-22T10:35:21.989Z,9.81
2016-10-22T10:36:22.032Z,9.83
2016-10-22T10:37:21.970Z,9.68
2016-10-22T10:38:21.943Z,9.75
2016-10-22T10:39:21.934Z,9.75
2016-10-22T10:40:21.928Z,9.79
2016-10-22T10:41:21.909Z,9.91
2016-10-22T10:42:22.204Z,9.86
2016-10-22T10:43:21.883Z,9.93
2016-10-22T10:44:21.866Z,9.81
2016-10-22T10:45:21.854Z,9.82
2016-10-22T10:46:21.842Z,9.82
2016-10-22T10:47:21.825Z,9.75
2016-10-22T10:48:22.128Z,9.82
2016-10-22T10:49:21.797Z,9.78
2016-10-22T10:50:21.800Z,9.7
2016-10-22T10:51:21.775Z,9.81
2016-10-22T10:52:22.086Z,9.79
2016-10-22T10:53:21.741Z,9.7
2016-10-22T10:54:21.731Z,9.73
2016-10-22T10:55:21.715Z,9.79
2016-10-22T10:56:21.712Z,9.76
2016-10-22T10:57:21.688Z,9.78
2016-10-22T10:58:21.680Z,9.67
2016-10-22T10:59:21.663Z,9.71
2016-10-22T11:00:21.968Z,9.71
2016-10-22T11:01:21.953Z,9.7
2016-10-22T11:02:21.936Z,9.82
2016-10-22T11:03:21.619Z,9.76
2016-10-22T11:04:21.606Z,9.82
2016-10-22T11:05:21.580Z,9.88
2016-10-22T11:06:21.568Z,9.88
2016-10-22T11:07:21.567Z,9.94
2016-10-22T11:08:21.859Z,9.91
2016-10-22T11:09:21.539Z,9.85
2016-10-22T11:10:21.507Z,9.93
2016-10-22T11:11:21.496Z,9.97
2016-10-22T11:12:21.483Z,10
2016-10-22T11:13:21.476Z,10.04
2016-10-22T11:14:21.472Z,9.94
2016-10-22T11:15:21.449Z,9.96
2016-10-22T11:16:21.441Z,9.93
2016-10-22T11:17:21.421Z,9.99
2016-10-22T11:18:21.756Z,9.97
2016-10-22T11:19:21.394Z,9.93
2016-10-22T11:20:21.380Z,9.96
2016-10-22T11:21:21.411Z,9.97
2016-10-22T11:22:21.351Z,9.97
2016-10-22T11:23:21.672Z,10
2016-10-22T11:24:21.648Z,9.97
2016-10-22T11:25:21.319Z,10.06
2016-10-22T11:26:21.318Z,9.97
2016-10-22T11:27:21.294Z,10.01
2016-10-22T11:28:21.606Z,9.89
2016-10-22T11:29:21.266Z,9.91
2016-10-22T11:30:21.245Z,9.96
2016-10-22T11:31:21.234Z,9.97
2016-10-22T11:32:21.225Z,9.93
2016-10-22T11:33:21.215Z,9.93
2016-10-22T11:34:21.198Z,9.94
2016-10-22T11:35:21.179Z,10.04
2016-10-22T11:36:21.169Z,9.93
2016-10-22T11:37:21.554Z,9.97
2016-10-22T11:38:21.137Z,9.88
2016-10-22T11:39:21.442Z,9.91
2016-10-22T11:40:21.123Z,9.94
2016-10-22T11:41:21.100Z,9.91
2016-10-22T11:42:21.405Z,9.89
2016-10-22T11:43:21.467Z,9.86
2016-10-22T11:44:21.097Z,9.79
2016-10-22T11:45:21.046Z,9.76
2016-10-22T11:46:21.242Z,9.76
2016-10-22T11:47:21.341Z,9.73
2016-10-22T11:48:21.009Z,9.71
2016-10-22T11:49:20.998Z,9.7
2016-10-22T11:50:20.981Z,9.73
2016-10-22T11:51:20.967Z,9.73
2016-10-22T11:52:20.955Z,9.71
2016-10-22T11:53:20.938Z,9.73
2016-10-22T11:54:20.931Z,9.76
2016-10-22T11:55:20.908Z,9.75
2016-10-22T11:56:21.209Z,9.75
2016-10-22T11:57:20.877Z,9.73
2016-10-22T11:58:20.866Z,9.79
2016-10-22T11:59:20.852Z,9.79
2016-10-22T12:00:20.836Z,9.68
2016-10-22T12:01:21.141Z,9.78
2016-10-22T12:02:20.813Z,9.81
2016-10-22T12:03:20.799Z,9.81
2016-10-22T12:04:20.783Z,9.85
2016-10-22T12:05:21.407Z,9.79
2016-10-22T12:06:21.336Z,9.82
2016-10-22T12:07:21.060Z,9.81
2016-10-22T12:08:20.736Z,9.82
2016-10-22T12:09:21.037Z,9.78
2016-10-22T12:10:20.903Z,9.89
2016-10-22T12:11:20.685Z,9.93
2016-10-22T12:12:20.698Z,9.88
2016-10-22T12:13:20.665Z,9.91
2016-10-22T12:14:20.662Z,9.79
2016-10-22T12:15:20.631Z,9.85
2016-10-22T12:16:20.961Z,9.93
2016-10-22T12:17:20.607Z,9.83
2016-10-22T12:18:20.594Z,9.93
2016-10-22T12:19:20.577Z,9.88
2016-10-22T12:20:20.583Z,9.89
2016-10-22T12:21:20.550Z,9.85
2016-10-22T12:22:20.537Z,9.91
2016-10-22T12:23:20.522Z,9.88
2016-10-22T12:24:20.546Z,9.91
2016-10-22T12:25:20.492Z,9.85
2016-10-22T12:26:20.477Z,9.88
2016-10-22T12:27:20.478Z,10
2016-10-22T12:28:20.463Z,9.97
2016-10-22T12:29:20.445Z,9.89
2016-10-22T12:30:20.426Z,10
2016-10-22T12:31:20.412Z,9.97
2016-10-22T12:32:20.720Z,9.93
2016-10-22T12:33:20.432Z,9.89
2016-10-22T12:34:20.372Z,10.03
2016-10-22T12:35:20.366Z,9.97
2016-10-22T12:36:20.666Z,10.03
2016-10-22T12:37:20.589Z,10.03
2016-10-22T12:38:20.318Z,9.97
2016-10-22T12:39:20.318Z,9.97
2016-10-22T12:40:20.610Z,10.01
2016-10-22T12:41:20.283Z,9.96
2016-10-22T12:42:20.324Z,10
2016-10-22T12:43:20.254Z,10.03
2016-10-22T12:44:20.231Z,9.97
2016-10-22T12:45:20.877Z,10.03
2016-10-22T12:46:20.238Z,9.96
2016-10-22T12:47:20.198Z,9.96
2016-10-22T12:48:20.494Z,9.99
2016-10-22T12:49:20.480Z,9.94
2016-10-22T12:50:20.155Z,10
2016-10-22T12:51:20.138Z,10
2016-10-22T12:52:20.129Z,9.99
2016-10-22T12:53:20.117Z,10
2016-10-22T12:54:20.163Z,10.03
2016-10-22T12:55:20.411Z,9.97
2016-10-22T12:56:20.067Z,10.06
2016-10-22T12:57:20.059Z,10.06
2016-10-22T12:58:20.387Z,10.04
2016-10-22T12:59:20.340Z,10.01
2016-10-22T13:00:20.020Z,10.03
2016-10-22T13:01:19.997Z,10.06
2016-10-22T13:02:19.998Z,10.04
2016-10-22T13:03:19.987Z,10.07
2016-10-22T13:04:19.963Z,10
2016-10-22T13:05:19.961Z,10.07
2016-10-22T13:06:19.929Z,10.14
2016-10-22T13:07:19.955Z,10.1
2016-10-22T13:08:19.904Z,10.15
2016-10-22T13:09:20.212Z,10.1
2016-10-22T13:10:19.878Z,10.06
2016-10-22T13:11:19.878Z,10
2016-10-22T13:12:19.851Z,10.12
2016-10-22T13:13:20.173Z,10.21
2016-10-22T13:14:19.834Z,10.17
2016-10-22T13:15:20.137Z,10.22
2016-10-22T13:16:19.806Z,10.15
2016-10-22T13:17:19.782Z,10.21
2016-10-22T13:18:19.775Z,10.19
2016-10-22T13:19:19.756Z,10.18
2016-10-22T13:20:20.061Z,10.17